Terminal Aerodrome Forecast
Issued by NWS

Home | Current Version | Previous Version | Text Only | Print | Product List | Glossary On
Versions: 1 2 3 4 5 6 7 8 9 10 11 12 13 14 15 16 17
000
FTUS41 KLWX 291722
TAFMTN
TAF
KMTN 291722Z 2918/3018 36005KT P6SM BKN050
     FM292200 09005KT P6SM BKN090
     FM300000 36004KT P6SM BKN130
     FM301300 11004KT P6SM BKN050
     FM301500 13005KT P6SM SHRA BKN035=

USA.gov is the U.S. government's official web portal to all federal, state and local government web resources and services.